Terminal Aerodrome Forecast
Issued by NWS Portland, ME

Current Version | Previous Version | Text Only | Print | Product List | Glossary On
Versions: 1 2 3 4 5 6 7 8 9 10 11 12 13 14 15 16 17 18 19 20
602
FTUS41 KGYX 051139 AAA
TAFPWM
TAF AMD
KPWM 051139Z 0512/0612 35003KT P6SM OVC080
     FM051300 36003KT P6SM BKN050 OVC100
     FM051400 32003KT 1 1/2SM -SN BR OVC015
     FM052200 32005KT P6SM BKN050
     FM060300 31006KT P6SM SKC=

USA.gov is the U.S. government's official web portal to all federal, state and local government web resources and services.